Reklama

Seznam meteostanic a jejich METAR

Vyhledat místa podle abecedy:
A B C D E F G H I J K L M N O P Q R S T U V W X Y Z

Filtrovat:

ID stanice:
a/nebo
Název místa (fulltext):
 
Místo (ID)Naposledy načteno 
Milešovka (Milesovka) 31.05.2020 04:00 UTC Zobrazit data
Místo: Milešovka
Teplota: 5 °C (pocitová: -3.2 °C)
Vítr: 7 m/s z(e) 340°
Počasí: skoro zataženo
Dohlednost: 60 km
Zákl. oblačnosti: 5/8 3000 m;6/8 4800 m
Vlhkost: 93%
Mošnov (Ostrava/Mo) 31.05.2020 04:00 UTC Zobrazit data
Místo: Mošnov
Teplota: 10 °C (pocitová: 5.3 °C)
Vítr: 4 m/s z(e) 290°
Počasí: déšť
Dohlednost: 16 km
Zákl. oblačnosti: 3/8 900 m;8/8 1500 m
Vlhkost: 82%
Macau (VMMC) 31.05.2020 04:00 UTC Zobrazit METAR
VMMC 310400Z 20011KT 9999 FEW015 SCT025 30/28 Q1011 NOSIG
Madeira (LPMA) 31.05.2020 04:00 UTC Zobrazit METAR
LPMA 310400Z 32006KT 260V050 9999 SCT015 19/15 Q1013
Madrid (LETO) 31.05.2020 04:00 UTC Zobrazit METAR
LETO 310400Z 02007KT CAVOK 16/09 Q1013 NOSIG
Majuro Atoll (PKMA) Zatím nenačteno  
Malabo (FGSL) 31.05.2020 02:00 UTC Zobrazit METAR
FGSL 310200Z 00000KT 9999 FEW010 24/23 Q1012 NOSIG
Malaga (LEMG) 31.05.2020 04:00 UTC Zobrazit METAR
LEMG 310400Z 30009KT CAVOK 15/10 Q1011 NOSIG
Male (VRMM) 31.05.2020 04:00 UTC Zobrazit METAR
VRMM 310400Z 24008KT 9999 FEW018 30/27 Q1011 NOSIG
Malmo (ESMS) 31.05.2020 03:50 UTC Zobrazit METAR
ESMS 310350Z 02008KT CAVOK 10/05 Q1025
Malta (LMML) 31.05.2020 03:45 UTC Zobrazit METAR
LMML 310345Z 32003KT 9000 FEW008 17/17 Q1013
Managua (MNMG) 22.04.2020 18:00 UTC Zobrazit METAR
MNMG 221800Z 14006KT 7000 FEW025 34/20 Q1011 A2987 2AC070 1CI300 FU NOSIG
Manchester (EGCC) 26.05.2020 16:50 UTC Zobrazit METAR
EGCC 261650Z AUTO 29009KT 260V320 9999 BKN033 18/10 Q1037 NOSIG
Manila (RPLL) 31.05.2020 04:00 UTC Zobrazit METAR
RPLL 310400Z 32009KT 280V350 9999 FEW025 33/24 Q1012 NOSIG RMK A2988
Manzini (FDMS) 27.05.2020 12:00 UTC Zobrazit METAR
FDMS 271200Z 34010KT CAVOK 19/M04 Q1019 NOSIG
Maputo (FQMA) 31.05.2020 04:00 UTC Zobrazit METAR
FQMA 310400Z VRB01KT 9999 FEW025 16/15 Q1024 NOSIG
Maribor (LJMB) 31.05.2020 04:00 UTC Zobrazit METAR
LJMB 310400Z 02002KT CAVOK 05/04 Q1017
Marrakech (GMMX) 31.05.2020 04:00 UTC Zobrazit METAR
GMMX 310400Z 27005KT CAVOK 17/14 Q1012 NOSIG
Maseru (FXMM) 28.05.2020 12:00 UTC Zobrazit METAR
FXMM 281200Z 25007KT CAVOK 13/M10 Q1023 NOSIG
Mauritius (FIMP) 31.05.2020 04:00 UTC Zobrazit METAR
FIMP 310400Z 33002KT 9999 SCT017 BKN050 21/20 Q1020
Melilla (GEML) 31.05.2020 04:00 UTC Zobrazit METAR
GEML 310400Z AUTO 06004KT 020V110 9999 FEW009 OVC019 20/18 Q1010
Mexico City (MMMX) 31.05.2020 03:45 UTC Zobrazit METAR
MMMX 310345Z 03012KT 10SM SCT020 BKN080 BKN200 16/07 A3034 NOSIG RMK 8/462 HZY OCNL DROPS
Midway Atoll, Sand Island (PMDY) 31.05.2020 03:56 UTC Zobrazit METAR
PMDY 310356Z AUTO 20005KT 9SM FEW002 SCT017 27/23 A3014 RMK AO2 SLP205 T02720233
Milan (LIMC) 31.05.2020 03:50 UTC Zobrazit METAR
LIMC 310350Z 07003KT 9999 SCT080 14/13 Q1017 NOSIG
Minsk (UMMM) 11.07.2016 14:00 UTC Zobrazit METAR
UMMM 111400Z ///// //// BKN040 BKN200 28/16 Q1009 NOSIG RMK QFE738
Mitilini (LGMT) 31.05.2020 03:50 UTC Zobrazit METAR
LGMT 310350Z VRB03KT 9999 FEW020 17/11 Q1016
Mogadishu (HCMM) 31.05.2020 04:00 UTC Zobrazit METAR
HCMM 310400Z 25006KT 9999 BKN018 27/22 Q1012
Monrovia (GLRB) 30.05.2020 12:00 UTC Zobrazit METAR
GLRB 301200Z 24005KT 9999 BKN018 31/26 Q1013 NOSIG
Montevideo (SUMU) 31.05.2020 04:00 UTC Zobrazit METAR
SUMU 310400Z 27017KT 9999 BKN020 10/05 Q1013 NOSIG
Montpellier/ Mediterranee (LFMT) 31.05.2020 04:00 UTC Zobrazit METAR
LFMT 310400Z AUTO 03006KT 9999 SCT017 BKN025 OVC030 16/15 Q1015 TEMPO BKN013
Moscow (UUEE) Zatím nenačteno  
Mostar (LQMO) 30.05.2020 08:00 UTC Zobrazit METAR
LQMO 300800Z VRB02KT 9999 FEW035 SCT060 20/06 Q1015
Mount Pleasant (EGYP) 31.05.2020 03:50 UTC Zobrazit METAR
EGYP 310350Z 25009KT 4000 -DZ SCT003 BKN008 05/04 Q1014
Munich (EDDM) 31.05.2020 03:50 UTC Zobrazit METAR
EDDM 310350Z 33003KT CAVOK 06/05 Q1019 NOSIG
Muscat (OOMS) 31.05.2020 03:50 UTC Zobrazit METAR
OOMS 310350Z 22013KT CAVOK 38/18 Q1004 NOSIG
Reklama

Lunární kalendář

  • 05.06.Fáze měsíce uplnek
  • 13.06.Fáze měsíce posl_ctvrt
  • 21.06.Fáze měsíce nov
  • 28.06.Fáze měsíce prv_ctvrt



Reklama
Meteodomečky

Počasí na Váš email

Emaily jsou bez reklamy a bez spamu



Odhlásit newsletter

Reklama


Další české internetové stránky (nejen) o počasí najdete v katalogu TOPlist - weby o počasí nebo vyhledejte na internetu, co jste tu na 🌞 Slunečnu ⛅ zatím nenašli:

Reklama